<?xml version="1.0" encoding="UTF-8" standalone="no" ?><gpx xmlns="http://www.topografix.com/GPX/1/1" xmlns:gpxx="http://www.garmin.com/xmlschemas/GpxExtensions/v3" xmlns:wptx1="http://www.garmin.com/xmlschemas/WaypointExtension/v1" xmlns:gpxtpx="http://www.garmin.com/xmlschemas/TrackPointExtension/v1" creator="Dakota 20" version="1.1" xmlns:xsi="http://www.w3.org/2001/XMLSchema-instance" xsi:schemaLocation="http://www.topografix.com/GPX/1/1 http://www.topografix.com/GPX/1/1/gpx.xsd http://www.garmin.com/xmlschemas/GpxExtensions/v3 http://www8.garmin.com/xmlschemas/GpxExtensionsv3.xsd http://www.garmin.com/xmlschemas/WaypointExtension/v1 http://www8.garmin.com/xmlschemas/WaypointExtensionv1.xsd http://www.garmin.com/xmlschemas/TrackPointExtension/v1 http://www.garmin.com/xmlschemas/TrackPointExtensionv1.xsd"><metadata><link href="http://www.garmin.com"><text>Garmin International</text></link><time>2014-01-29T15:05:46Z</time></metadata><trk><name>Current Track: 29 JAN 2014 09:56</name><extensions><gpxx:TrackExtension><gpxx:DisplayColor>Cyan</gpxx:DisplayColor></gpxx:TrackExtension></extensions><trkseg><trkpt lat="51.9656067062" lon="-2.0610669907"><ele>56.86</ele><time>2014-01-29T09:56:40Z</time></trkpt><trkpt lat="51.9656000007" lon="-2.0610664040"><ele>57.34</ele><time>2014-01-29T09:57:07Z</time></trkpt><trkpt lat="51.9655983243" lon="-2.0610588603"><ele>57.34</ele><time>2014-01-29T09:57:30Z</time></trkpt><trkpt lat="51.9655962288" lon="-2.0610514842"><ele>56.86</ele><time>2014-01-29T09:57:54Z</time></trkpt><trkpt lat="51.9656009227" lon="-2.0610436890"><ele>57.34</ele><time>2014-01-29T09:58:10Z</time></trkpt><trkpt lat="51.9656011742" lon="-2.0610425994"><ele>57.34</ele><time>2014-01-29T09:58:33Z</time></trkpt><trkpt lat="51.9656136632" lon="-2.0610561781"><ele>57.34</ele><time>2014-01-29T09:58:49Z</time></trkpt><trkpt lat="51.9656834844" lon="-2.0610363130"><ele>56.86</ele><time>2014-01-29T09:59:06Z</time></trkpt><trkpt lat="51.9656993262" lon="-2.0610213093"><ele>55.89</ele><time>2014-01-29T09:59:25Z</time></trkpt><trkpt lat="51.9657105580" lon="-2.0610093232"><ele>56.86</ele><time>2014-01-29T09:59:50Z</time></trkpt><trkpt lat="51.9657173473" lon="-2.0610032044"><ele>56.86</ele><time>2014-01-29T10:00:12Z</time></trkpt><trkpt lat="51.9657227118" lon="-2.0610006899"><ele>56.86</ele><time>2014-01-29T10:00:31Z</time></trkpt><trkpt lat="51.9658143260" lon="-2.0609310362"><ele>55.89</ele><time>2014-01-29T10:00:49Z</time></trkpt><trkpt lat="51.9659293257" lon="-2.0610569324"><ele>55.41</ele><time>2014-01-29T10:01:05Z</time></trkpt><trkpt lat="51.9659623504" lon="-2.0611039549"><ele>55.41</ele><time>2014-01-29T10:01:09Z</time></trkpt><trkpt lat="51.9660149887" lon="-2.0611685794"><ele>55.89</ele><time>2014-01-29T10:01:16Z</time></trkpt><trkpt lat="51.9661351014" lon="-2.0611826610"><ele>55.41</ele><time>2014-01-29T10:01:29Z</time></trkpt><trkpt lat="51.9662044197" lon="-2.0611865167"><ele>55.41</ele><time>2014-01-29T10:01:36Z</time></trkpt><trkpt lat="51.9663757458" lon="-2.0611912943"><ele>55.41</ele><time>2014-01-29T10:01:53Z</time></trkpt><trkpt lat="51.9665286317" lon="-2.0612356346"><ele>53.49</ele><time>2014-01-29T10:02:07Z</time></trkpt><trkpt lat="51.9666992873" lon="-2.0612665638"><ele>53.49</ele><time>2014-01-29T10:02:24Z</time></trkpt><trkpt lat="51.9668505806" lon="-2.0612891112"><ele>53.49</ele><time>2014-01-29T10:02:40Z</time></trkpt><trkpt lat="51.9668590464" lon="-2.0612933859"><ele>53.49</ele><time>2014-01-29T10:02:41Z</time></trkpt><trkpt lat="51.9668958429" lon="-2.0613061264"><ele>53.97</ele><time>2014-01-29T10:02:44Z</time></trkpt><trkpt lat="51.9670906384" lon="-2.0613284223"><ele>53.97</ele><time>2014-01-29T10:03:01Z</time></trkpt><trkpt lat="51.9672742020" lon="-2.0614062902"><ele>53.49</ele><time>2014-01-29T10:03:17Z</time></trkpt><trkpt lat="51.9673883636" lon="-2.0615542307"><ele>53.49</ele><time>2014-01-29T10:03:33Z</time></trkpt><trkpt lat="51.9675186183" lon="-2.0617151633"><ele>52.53</ele><time>2014-01-29T10:03:50Z</time></trkpt><trkpt lat="51.9676324446" lon="-2.0619482640"><ele>52.53</ele><time>2014-01-29T10:04:09Z</time></trkpt><trkpt lat="51.9677381404" lon="-2.0621801913"><ele>52.05</ele><time>2014-01-29T10:04:25Z</time></trkpt><trkpt lat="51.9678257313" lon="-2.0623706281"><ele>51.09</ele><time>2014-01-29T10:04:39Z</time></trkpt><trkpt lat="51.9679513760" lon="-2.0626240969"><ele>51.09</ele><time>2014-01-29T10:04:57Z</time></trkpt><trkpt lat="51.9680452533" lon="-2.0628598798"><ele>50.61</ele><time>2014-01-29T10:05:14Z</time></trkpt><trkpt lat="51.9681023341" lon="-2.0629812498"><ele>50.13</ele><time>2014-01-29T10:05:23Z</time></trkpt><trkpt lat="51.9681184273" lon="-2.0630105864"><ele>50.13</ele><time>2014-01-29T10:05:25Z</time></trkpt><trkpt lat="51.9682452455" lon="-2.0632690843"><ele>49.16</ele><time>2014-01-29T10:05:43Z</time></trkpt><trkpt lat="51.9682546332" lon="-2.0633498020"><ele>49.16</ele><time>2014-01-29T10:05:58Z</time></trkpt><trkpt lat="51.9682688825" lon="-2.0633656438"><ele>49.16</ele><time>2014-01-29T10:06:22Z</time></trkpt><trkpt lat="51.9684023224" lon="-2.0634427574"><ele>48.68</ele><time>2014-01-29T10:06:33Z</time></trkpt><trkpt lat="51.9685350079" lon="-2.0634955633"><ele>48.20</ele><time>2014-01-29T10:06:49Z</time></trkpt><trkpt lat="51.9685528614" lon="-2.0634993352"><ele>48.20</ele><time>2014-01-29T10:06:50Z</time></trkpt><trkpt lat="51.9687065855" lon="-2.0635561645"><ele>47.72</ele><time>2014-01-29T10:07:04Z</time></trkpt><trkpt lat="51.9688898977" lon="-2.0635831542"><ele>47.24</ele><time>2014-01-29T10:07:19Z</time></trkpt><trkpt lat="51.9690403529" lon="-2.0636241417"><ele>47.24</ele><time>2014-01-29T10:07:34Z</time></trkpt><trkpt lat="51.9691981003" lon="-2.0636539813"><ele>46.28</ele><time>2014-01-29T10:07:49Z</time></trkpt><trkpt lat="51.9693243317" lon="-2.0636831503"><ele>45.80</ele><time>2014-01-29T10:08:02Z</time></trkpt><trkpt lat="51.9694869407" lon="-2.0637514628"><ele>45.80</ele><time>2014-01-29T10:08:19Z</time></trkpt><trkpt lat="51.9696794730" lon="-2.0637535583"><ele>45.80</ele><time>2014-01-29T10:08:35Z</time></trkpt><trkpt lat="51.9698483683" lon="-2.0636560768"><ele>44.36</ele><time>2014-01-29T10:08:52Z</time></trkpt><trkpt lat="51.9700291660" lon="-2.0635109022"><ele>43.88</ele><time>2014-01-29T10:09:11Z</time></trkpt><trkpt lat="51.9701644499" lon="-2.0634246524"><ele>43.40</ele><time>2014-01-29T10:09:24Z</time></trkpt><trkpt lat="51.9704127219" lon="-2.0632913802"><ele>42.44</ele><time>2014-01-29T10:09:46Z</time></trkpt><trkpt lat="51.9705379475" lon="-2.0632077288"><ele>41.95</ele><time>2014-01-29T10:10:02Z</time></trkpt><trkpt lat="51.9706821162" lon="-2.0631825831"><ele>40.99</ele><time>2014-01-29T10:10:17Z</time></trkpt><trkpt lat="51.9708519336" lon="-2.0631451160"><ele>40.99</ele><time>2014-01-29T10:10:34Z</time></trkpt><trkpt lat="51.9708703738" lon="-2.0631854329"><ele>40.99</ele><time>2014-01-29T10:10:38Z</time></trkpt><trkpt lat="51.9708757382" lon="-2.0632674918"><ele>40.51</ele><time>2014-01-29T10:10:42Z</time></trkpt><trkpt lat="51.9708997943" lon="-2.0635546558"><ele>40.99</ele><time>2014-01-29T10:10:57Z</time></trkpt><trkpt lat="51.9709395245" lon="-2.0637636166"><ele>40.99</ele><time>2014-01-29T10:11:11Z</time></trkpt><trkpt lat="51.9709942583" lon="-2.0640121400"><ele>40.99</ele><time>2014-01-29T10:11:27Z</time></trkpt><trkpt lat="51.9710945059" lon="-2.0642345957"><ele>40.99</ele><time>2014-01-29T10:11:46Z</time></trkpt><trkpt lat="51.9711432047" lon="-2.0643127151"><ele>40.99</ele><time>2014-01-29T10:12:02Z</time></trkpt><trkpt lat="51.9711771514" lon="-2.0644131303"><ele>40.99</ele><time>2014-01-29T10:12:10Z</time></trkpt><trkpt lat="51.9712245092" lon="-2.0645473246"><ele>40.51</ele><time>2014-01-29T10:12:20Z</time></trkpt><trkpt lat="51.9713283610" lon="-2.0647820178"><ele>40.51</ele><time>2014-01-29T10:12:39Z</time></trkpt><trkpt lat="51.9714287762" lon="-2.0649649110"><ele>40.99</ele><time>2014-01-29T10:12:54Z</time></trkpt><trkpt lat="51.9715468772" lon="-2.0652136020"><ele>40.99</ele><time>2014-01-29T10:13:12Z</time></trkpt><trkpt lat="51.9715964980" lon="-2.0654079784"><ele>40.51</ele><time>2014-01-29T10:13:24Z</time></trkpt><trkpt lat="51.9716239069" lon="-2.0656083897"><ele>40.51</ele><time>2014-01-29T10:13:37Z</time></trkpt><trkpt lat="51.9716555066" lon="-2.0658243913"><ele>40.51</ele><time>2014-01-29T10:13:52Z</time></trkpt><trkpt lat="51.9716500584" lon="-2.0660737529"><ele>40.51</ele><time>2014-01-29T10:14:08Z</time></trkpt><trkpt lat="51.9716707617" lon="-2.0662043430"><ele>40.99</ele><time>2014-01-29T10:14:25Z</time></trkpt><trkpt lat="51.9716980029" lon="-2.0664361026"><ele>41.47</ele><time>2014-01-29T10:14:39Z</time></trkpt><trkpt lat="51.9716970809" lon="-2.0664906688"><ele>41.95</ele><time>2014-01-29T10:14:42Z</time></trkpt><trkpt lat="51.9717461150" lon="-2.0667422935"><ele>41.95</ele><time>2014-01-29T10:14:57Z</time></trkpt><trkpt lat="51.9717717636" lon="-2.0669750590"><ele>41.95</ele><time>2014-01-29T10:15:12Z</time></trkpt><trkpt lat="51.9717826601" lon="-2.0672383346"><ele>42.92</ele><time>2014-01-29T10:15:28Z</time></trkpt><trkpt lat="51.9717788883" lon="-2.0673517417"><ele>42.92</ele><time>2014-01-29T10:15:42Z</time></trkpt><trkpt lat="51.9717831630" lon="-2.0673966687"><ele>42.92</ele><time>2014-01-29T10:15:56Z</time></trkpt><trkpt lat="51.9717789721" lon="-2.0674027037"><ele>42.92</ele><time>2014-01-29T10:16:14Z</time></trkpt><trkpt lat="51.9717918802" lon="-2.0676350500"><ele>43.40</ele><time>2014-01-29T10:16:29Z</time></trkpt><trkpt lat="51.9717991725" lon="-2.0677869301"><ele>43.40</ele><time>2014-01-29T10:16:44Z</time></trkpt><trkpt lat="51.9718074705" lon="-2.0680215396"><ele>43.88</ele><time>2014-01-29T10:16:58Z</time></trkpt><trkpt lat="51.9718334544" lon="-2.0683108829"><ele>43.40</ele><time>2014-01-29T10:17:14Z</time></trkpt><trkpt lat="51.9718695804" lon="-2.0685538743"><ele>43.88</ele><time>2014-01-29T10:17:29Z</time></trkpt><trkpt lat="51.9718958996" lon="-2.0688190777"><ele>43.88</ele><time>2014-01-29T10:17:45Z</time></trkpt><trkpt lat="51.9719443470" lon="-2.0691365842"><ele>43.88</ele><time>2014-01-29T10:18:04Z</time></trkpt><trkpt lat="51.9719751924" lon="-2.0694519114"><ele>43.88</ele><time>2014-01-29T10:18:22Z</time></trkpt><trkpt lat="51.9720279146" lon="-2.0697358064"><ele>43.40</ele><time>2014-01-29T10:18:38Z</time></trkpt><trkpt lat="51.9720469415" lon="-2.0700194500"><ele>43.40</ele><time>2014-01-29T10:18:53Z</time></trkpt><trkpt lat="51.9720509648" lon="-2.0702865813"><ele>43.40</ele><time>2014-01-29T10:19:08Z</time></trkpt><trkpt lat="51.9720439240" lon="-2.0703452546"><ele>43.40</ele><time>2014-01-29T10:19:11Z</time></trkpt><trkpt lat="51.9719834905" lon="-2.0704584941"><ele>43.40</ele><time>2014-01-29T10:19:28Z</time></trkpt><trkpt lat="51.9719634578" lon="-2.0705062710"><ele>43.40</ele><time>2014-01-29T10:19:39Z</time></trkpt><trkpt lat="51.9719665591" lon="-2.0706068538"><ele>43.88</ele><time>2014-01-29T10:19:43Z</time></trkpt><trkpt lat="51.9719765335" lon="-2.0706759207"><ele>42.92</ele><time>2014-01-29T10:19:57Z</time></trkpt><trkpt lat="51.9720000867" lon="-2.0707282238"><ele>43.40</ele><time>2014-01-29T10:20:07Z</time></trkpt><trkpt lat="51.9720460195" lon="-2.0709350891"><ele>42.92</ele><time>2014-01-29T10:20:22Z</time></trkpt><trkpt lat="51.9720667228" lon="-2.0711139590"><ele>43.40</ele><time>2014-01-29T10:20:35Z</time></trkpt><trkpt lat="51.9720703270" lon="-2.0713699423"><ele>42.44</ele><time>2014-01-29T10:20:50Z</time></trkpt><trkpt lat="51.9720806368" lon="-2.0714626461"><ele>42.92</ele><time>2014-01-29T10:20:55Z</time></trkpt><trkpt lat="51.9721199479" lon="-2.0717097446"><ele>42.44</ele><time>2014-01-29T10:21:10Z</time></trkpt><trkpt lat="51.9721481111" lon="-2.0719994232"><ele>43.40</ele><time>2014-01-29T10:21:26Z</time></trkpt><trkpt lat="51.9722036831" lon="-2.0723090507"><ele>42.92</ele><time>2014-01-29T10:21:44Z</time></trkpt><trkpt lat="51.9722058624" lon="-2.0723232999"><ele>43.88</ele><time>2014-01-29T10:21:45Z</time></trkpt><trkpt lat="51.9722099695" lon="-2.0723608509"><ele>42.92</ele><time>2014-01-29T10:21:47Z</time></trkpt><trkpt lat="51.9722342771" lon="-2.0727211889"><ele>43.40</ele><time>2014-01-29T10:22:04Z</time></trkpt><trkpt lat="51.9722829759" lon="-2.0730494242"><ele>43.88</ele><time>2014-01-29T10:22:22Z</time></trkpt><trkpt lat="51.9723160844" lon="-2.0733712893"><ele>43.40</ele><time>2014-01-29T10:22:41Z</time></trkpt><trkpt lat="51.9723203592" lon="-2.0734431222"><ele>42.92</ele><time>2014-01-29T10:22:45Z</time></trkpt><trkpt lat="51.9723564014" lon="-2.0736436173"><ele>43.40</ele><time>2014-01-29T10:23:01Z</time></trkpt><trkpt lat="51.9723528810" lon="-2.0736613031"><ele>43.40</ele><time>2014-01-29T10:23:11Z</time></trkpt><trkpt lat="51.9723545574" lon="-2.0737117622"><ele>42.92</ele><time>2014-01-29T10:23:14Z</time></trkpt><trkpt lat="51.9723941199" lon="-2.0739909634"><ele>43.40</ele><time>2014-01-29T10:23:30Z</time></trkpt><trkpt lat="51.9724217802" lon="-2.0742720924"><ele>43.40</ele><time>2014-01-29T10:23:46Z</time></trkpt><trkpt lat="51.9724499434" lon="-2.0745787024"><ele>42.92</ele><time>2014-01-29T10:24:05Z</time></trkpt><trkpt lat="51.9724807888" lon="-2.0748767629"><ele>43.40</ele><time>2014-01-29T10:24:22Z</time></trkpt><trkpt lat="51.9724942837" lon="-2.0751189999"><ele>42.92</ele><time>2014-01-29T10:24:36Z</time></trkpt><trkpt lat="51.9725048449" lon="-2.0754899830"><ele>41.95</ele><time>2014-01-29T10:24:58Z</time></trkpt><trkpt lat="51.9725038391" lon="-2.0755210798"><ele>42.44</ele><time>2014-01-29T10:25:00Z</time></trkpt><trkpt lat="51.9725027494" lon="-2.0758189727"><ele>41.95</ele><time>2014-01-29T10:25:17Z</time></trkpt><trkpt lat="51.9725205190" lon="-2.0760524925"><ele>41.95</ele><time>2014-01-29T10:25:31Z</time></trkpt><trkpt lat="51.9725341816" lon="-2.0763268322"><ele>41.47</ele><time>2014-01-29T10:25:48Z</time></trkpt><trkpt lat="51.9725222792" lon="-2.0766305085"><ele>41.47</ele><time>2014-01-29T10:26:04Z</time></trkpt><trkpt lat="51.9725324214" lon="-2.0769341011"><ele>41.47</ele><time>2014-01-29T10:26:23Z</time></trkpt><trkpt lat="51.9725108799" lon="-2.0772096142"><ele>41.47</ele><time>2014-01-29T10:26:40Z</time></trkpt><trkpt lat="51.9725071918" lon="-2.0775192417"><ele>41.47</ele><time>2014-01-29T10:26:59Z</time></trkpt><trkpt lat="51.9724939484" lon="-2.0777667593"><ele>41.47</ele><time>2014-01-29T10:27:14Z</time></trkpt><trkpt lat="51.9724765141" lon="-2.0780729502"><ele>41.47</ele><time>2014-01-29T10:27:31Z</time></trkpt><trkpt lat="51.9724779390" lon="-2.0783545822"><ele>41.47</ele><time>2014-01-29T10:27:48Z</time></trkpt><trkpt lat="51.9724815432" lon="-2.0786257368"><ele>40.99</ele><time>2014-01-29T10:28:04Z</time></trkpt><trkpt lat="51.9724786095" lon="-2.0789395552"><ele>40.99</ele><time>2014-01-29T10:28:23Z</time></trkpt><trkpt lat="51.9724798668" lon="-2.0792542957"><ele>40.51</ele><time>2014-01-29T10:28:42Z</time></trkpt><trkpt lat="51.9724904280" lon="-2.0795485843"><ele>39.55</ele><time>2014-01-29T10:29:00Z</time></trkpt><trkpt lat="51.9725129753" lon="-2.0797942579"><ele>39.55</ele><time>2014-01-29T10:29:17Z</time></trkpt><trkpt lat="51.9725207705" lon="-2.0799629856"><ele>40.03</ele><time>2014-01-29T10:29:28Z</time></trkpt><trkpt lat="51.9725435693" lon="-2.0801214874"><ele>39.55</ele><time>2014-01-29T10:29:39Z</time></trkpt><trkpt lat="51.9725778513" lon="-2.0803997666"><ele>39.07</ele><time>2014-01-29T10:29:56Z</time></trkpt><trkpt lat="51.9726000633" lon="-2.0805757865"><ele>39.55</ele><time>2014-01-29T10:30:07Z</time></trkpt><trkpt lat="51.9726007339" lon="-2.0806901157"><ele>39.07</ele><time>2014-01-29T10:30:13Z</time></trkpt><trkpt lat="51.9726340938" lon="-2.0809722506"><ele>39.07</ele><time>2014-01-29T10:30:30Z</time></trkpt><trkpt lat="51.9726770930" lon="-2.0812941995"><ele>39.07</ele><time>2014-01-29T10:30:50Z</time></trkpt><trkpt lat="51.9726922642" lon="-2.0815495960"><ele>37.63</ele><time>2014-01-29T10:31:05Z</time></trkpt><trkpt lat="51.9726869836" lon="-2.0815847162"><ele>37.63</ele><time>2014-01-29T10:31:07Z</time></trkpt><trkpt lat="51.9726443198" lon="-2.0818746462"><ele>37.63</ele><time>2014-01-29T10:31:24Z</time></trkpt><trkpt lat="51.9725848082" lon="-2.0821147878"><ele>37.15</ele><time>2014-01-29T10:31:40Z</time></trkpt><trkpt lat="51.9725311641" lon="-2.0823559351"><ele>38.11</ele><time>2014-01-29T10:31:55Z</time></trkpt><trkpt lat="51.9724661205" lon="-2.0826196298"><ele>37.63</ele><time>2014-01-29T10:32:11Z</time></trkpt><trkpt lat="51.9723933656" lon="-2.0829033572"><ele>36.67</ele><time>2014-01-29T10:32:29Z</time></trkpt><trkpt lat="51.9723237958" lon="-2.0831590891"><ele>36.67</ele><time>2014-01-29T10:32:44Z</time></trkpt><trkpt lat="51.9723061938" lon="-2.0832048543"><ele>36.67</ele><time>2014-01-29T10:32:47Z</time></trkpt><trkpt lat="51.9722610153" lon="-2.0833134837"><ele>36.19</ele><time>2014-01-29T10:32:55Z</time></trkpt><trkpt lat="51.9721558224" lon="-2.0835435670"><ele>36.19</ele><time>2014-01-29T10:33:12Z</time></trkpt><trkpt lat="51.9720131624" lon="-2.0838044956"><ele>35.71</ele><time>2014-01-29T10:33:33Z</time></trkpt><trkpt lat="51.9718867633" lon="-2.0840210840"><ele>35.71</ele><time>2014-01-29T10:33:50Z</time></trkpt><trkpt lat="51.9717424270" lon="-2.0842169691"><ele>35.71</ele><time>2014-01-29T10:34:08Z</time></trkpt><trkpt lat="51.9715992641" lon="-2.0843869541"><ele>35.23</ele><time>2014-01-29T10:34:26Z</time></trkpt><trkpt lat="51.9715042971" lon="-2.0844711084"><ele>35.23</ele><time>2014-01-29T10:34:36Z</time></trkpt><trkpt lat="51.9714638125" lon="-2.0845081564"><ele>34.74</ele><time>2014-01-29T10:34:40Z</time></trkpt><trkpt lat="51.9713331386" lon="-2.0846059732"><ele>35.23</ele><time>2014-01-29T10:34:54Z</time></trkpt><trkpt lat="51.9711598009" lon="-2.0847867709"><ele>35.23</ele><time>2014-01-29T10:35:13Z</time></trkpt><trkpt lat="51.9709970243" lon="-2.0849741064"><ele>35.23</ele><time>2014-01-29T10:35:32Z</time></trkpt><trkpt lat="51.9709433801" lon="-2.0851735957"><ele>35.23</ele><time>2014-01-29T10:35:46Z</time></trkpt><trkpt lat="51.9708985370" lon="-2.0854579937"><ele>35.23</ele><time>2014-01-29T10:36:03Z</time></trkpt><trkpt lat="51.9708571304" lon="-2.0857758354"><ele>35.71</ele><time>2014-01-29T10:36:22Z</time></trkpt><trkpt lat="51.9708389416" lon="-2.0859358460"><ele>36.67</ele><time>2014-01-29T10:36:32Z</time></trkpt><trkpt lat="51.9708084315" lon="-2.0862651709"><ele>36.19</ele><time>2014-01-29T10:36:50Z</time></trkpt><trkpt lat="51.9707706291" lon="-2.0865760557"><ele>36.19</ele><time>2014-01-29T10:37:08Z</time></trkpt><trkpt lat="51.9707423821" lon="-2.0868477970"><ele>36.19</ele><time>2014-01-29T10:37:24Z</time></trkpt><trkpt lat="51.9707134645" lon="-2.0871493779"><ele>36.67</ele><time>2014-01-29T10:37:43Z</time></trkpt><trkpt lat="51.9706972037" lon="-2.0874407329"><ele>36.67</ele><time>2014-01-29T10:38:00Z</time></trkpt><trkpt lat="51.9706761651" lon="-2.0877423137"><ele>36.67</ele><time>2014-01-29T10:38:18Z</time></trkpt><trkpt lat="51.9706458226" lon="-2.0880552940"><ele>35.23</ele><time>2014-01-29T10:38:37Z</time></trkpt><trkpt lat="51.9706258737" lon="-2.0883301366"><ele>34.74</ele><time>2014-01-29T10:38:54Z</time></trkpt><trkpt lat="51.9705953635" lon="-2.0886466373"><ele>34.26</ele><time>2014-01-29T10:39:13Z</time></trkpt><trkpt lat="51.9705676194" lon="-2.0889452845"><ele>33.30</ele><time>2014-01-29T10:39:30Z</time></trkpt><trkpt lat="51.9705247879" lon="-2.0892197080"><ele>32.82</ele><time>2014-01-29T10:39:47Z</time></trkpt><trkpt lat="51.9705006480" lon="-2.0894740149"><ele>32.34</ele><time>2014-01-29T10:40:02Z</time></trkpt><trkpt lat="51.9705094490" lon="-2.0895511284"><ele>31.86</ele><time>2014-01-29T10:40:15Z</time></trkpt><trkpt lat="51.9705065992" lon="-2.0895664673"><ele>31.86</ele><time>2014-01-29T10:40:34Z</time></trkpt><trkpt lat="51.9704718143" lon="-2.0896893460"><ele>31.38</ele><time>2014-01-29T10:40:46Z</time></trkpt><trkpt lat="51.9704620913" lon="-2.0897662081"><ele>31.86</ele><time>2014-01-29T10:40:50Z</time></trkpt><trkpt lat="51.9704166614" lon="-2.0900270529"><ele>30.42</ele><time>2014-01-29T10:41:05Z</time></trkpt><trkpt lat="51.9703543000" lon="-2.0902777556"><ele>30.42</ele><time>2014-01-29T10:41:19Z</time></trkpt><trkpt lat="51.9702665415" lon="-2.0905093476"><ele>29.94</ele><time>2014-01-29T10:41:33Z</time></trkpt><trkpt lat="51.9701978099" lon="-2.0906701963"><ele>29.46</ele><time>2014-01-29T10:41:45Z</time></trkpt><trkpt lat="51.9701025076" lon="-2.0908657461"><ele>28.98</ele><time>2014-01-29T10:42:00Z</time></trkpt><trkpt lat="51.9700118154" lon="-2.0910704322"><ele>28.98</ele><time>2014-01-29T10:42:14Z</time></trkpt><trkpt lat="51.9699479453" lon="-2.0912592765"><ele>28.98</ele><time>2014-01-29T10:42:27Z</time></trkpt><trkpt lat="51.9698828179" lon="-2.0914922096"><ele>29.46</ele><time>2014-01-29T10:42:41Z</time></trkpt><trkpt lat="51.9698188640" lon="-2.0917556528"><ele>29.94</ele><time>2014-01-29T10:42:58Z</time></trkpt><trkpt lat="51.9697754458" lon="-2.0920128934"><ele>29.46</ele><time>2014-01-29T10:43:14Z</time></trkpt><trkpt lat="51.9697375596" lon="-2.0922496822"><ele>29.94</ele><time>2014-01-29T10:43:29Z</time></trkpt><trkpt lat="51.9697083067" lon="-2.0924644265"><ele>30.42</ele><time>2014-01-29T10:43:43Z</time></trkpt><trkpt lat="51.9697078038" lon="-2.0924967807"><ele>30.42</ele><time>2014-01-29T10:43:45Z</time></trkpt><trkpt lat="51.9696714263" lon="-2.0927348267"><ele>30.42</ele><time>2014-01-29T10:44:01Z</time></trkpt><trkpt lat="51.9696276728" lon="-2.0929892175"><ele>30.90</ele><time>2014-01-29T10:44:15Z</time></trkpt><trkpt lat="51.9695856795" lon="-2.0932693407"><ele>30.90</ele><time>2014-01-29T10:44:33Z</time></trkpt><trkpt lat="51.9695539959" lon="-2.0935066324"><ele>31.86</ele><time>2014-01-29T10:44:48Z</time></trkpt><trkpt lat="51.9695114996" lon="-2.0937643759"><ele>32.34</ele><time>2014-01-29T10:45:04Z</time></trkpt><trkpt lat="51.9694840070" lon="-2.0939753484"><ele>32.34</ele><time>2014-01-29T10:45:18Z</time></trkpt><trkpt lat="51.9694734458" lon="-2.0940642804"><ele>32.82</ele><time>2014-01-29T10:45:23Z</time></trkpt><trkpt lat="51.9694592804" lon="-2.0943757519"><ele>32.82</ele><time>2014-01-29T10:45:40Z</time></trkpt><trkpt lat="51.9694601186" lon="-2.0943966229"><ele>32.34</ele><time>2014-01-29T10:45:41Z</time></trkpt><trkpt lat="51.9694407564" lon="-2.0946604852"><ele>31.38</ele><time>2014-01-29T10:45:57Z</time></trkpt><trkpt lat="51.9694255013" lon="-2.0949261915"><ele>31.86</ele><time>2014-01-29T10:46:14Z</time></trkpt><trkpt lat="51.9694148563" lon="-2.0952153672"><ele>30.42</ele><time>2014-01-29T10:46:32Z</time></trkpt><trkpt lat="51.9693580270" lon="-2.0954578556"><ele>28.98</ele><time>2014-01-29T10:46:48Z</time></trkpt><trkpt lat="51.9692457933" lon="-2.0954373199"><ele>28.50</ele><time>2014-01-29T10:47:02Z</time></trkpt><trkpt lat="51.9690816756" lon="-2.0953995176"><ele>28.02</ele><time>2014-01-29T10:47:18Z</time></trkpt><trkpt lat="51.9689163007" lon="-2.0953599550"><ele>27.05</ele><time>2014-01-29T10:47:35Z</time></trkpt><trkpt lat="51.9687617384" lon="-2.0953349769"><ele>26.57</ele><time>2014-01-29T10:47:50Z</time></trkpt><trkpt lat="51.9686039910" lon="-2.0953012817"><ele>26.57</ele><time>2014-01-29T10:48:07Z</time></trkpt><trkpt lat="51.9685516879" lon="-2.0953017008"><ele>25.61</ele><time>2014-01-29T10:48:12Z</time></trkpt><trkpt lat="51.9684519432" lon="-2.0952733699"><ele>25.61</ele><time>2014-01-29T10:48:24Z</time></trkpt><trkpt lat="51.9682746660" lon="-2.0952656586"><ele>25.13</ele><time>2014-01-29T10:48:40Z</time></trkpt><trkpt lat="51.9681543857" lon="-2.0952447038"><ele>24.65</ele><time>2014-01-29T10:48:53Z</time></trkpt><trkpt lat="51.9680116419" lon="-2.0952281076"><ele>24.65</ele><time>2014-01-29T10:49:08Z</time></trkpt><trkpt lat="51.9679662120" lon="-2.0952174626"><ele>24.65</ele><time>2014-01-29T10:49:13Z</time></trkpt><trkpt lat="51.9678074587" lon="-2.0951759722"><ele>24.17</ele><time>2014-01-29T10:49:29Z</time></trkpt><trkpt lat="51.9677730091" lon="-2.0951680094"><ele>23.69</ele><time>2014-01-29T10:49:32Z</time></trkpt><trkpt lat="51.9677383918" lon="-2.0951575320"><ele>23.69</ele><time>2014-01-29T10:49:35Z</time></trkpt><trkpt lat="51.9675371423" lon="-2.0951121859"><ele>23.21</ele><time>2014-01-29T10:49:53Z</time></trkpt><trkpt lat="51.9673852623" lon="-2.0950683486"><ele>23.21</ele><time>2014-01-29T10:50:07Z</time></trkpt><trkpt lat="51.9672255870" lon="-2.0949712023"><ele>23.21</ele><time>2014-01-29T10:50:23Z</time></trkpt><trkpt lat="51.9671916403" lon="-2.0949458051"><ele>22.73</ele><time>2014-01-29T10:50:27Z</time></trkpt><trkpt lat="51.9670332223" lon="-2.0947654266"><ele>23.21</ele><time>2014-01-29T10:50:44Z</time></trkpt><trkpt lat="51.9668794982" lon="-2.0945803542"><ele>22.73</ele><time>2014-01-29T10:51:01Z</time></trkpt><trkpt lat="51.9667314738" lon="-2.0943708904"><ele>22.73</ele><time>2014-01-29T10:51:19Z</time></trkpt><trkpt lat="51.9666023925" lon="-2.0941931941"><ele>23.21</ele><time>2014-01-29T10:51:38Z</time></trkpt><trkpt lat="51.9665685296" lon="-2.0941359457"><ele>23.69</ele><time>2014-01-29T10:51:55Z</time></trkpt><trkpt lat="51.9665354211" lon="-2.0941017475"><ele>22.73</ele><time>2014-01-29T10:52:12Z</time></trkpt><trkpt lat="51.9665760733" lon="-2.0941420645"><ele>23.21</ele><time>2014-01-29T10:52:28Z</time></trkpt><trkpt lat="51.9665875565" lon="-2.0941102132"><ele>22.73</ele><time>2014-01-29T10:52:45Z</time></trkpt><trkpt lat="51.9665766601" lon="-2.0941035915"><ele>22.73</ele><time>2014-01-29T10:53:10Z</time></trkpt><trkpt lat="51.9665706251" lon="-2.0941056870"><ele>22.73</ele><time>2014-01-29T10:53:31Z</time></trkpt><trkpt lat="51.9665686134" lon="-2.0941066928"><ele>22.73</ele><time>2014-01-29T10:53:59Z</time></trkpt><trkpt lat="51.9665593095" lon="-2.0941148233"><ele>22.25</ele><time>2014-01-29T10:54:23Z</time></trkpt><trkpt lat="51.9665567111" lon="-2.0941066928"><ele>22.73</ele><time>2014-01-29T10:54:48Z</time></trkpt><trkpt lat="51.9665451441" lon="-2.0941203553"><ele>21.77</ele><time>2014-01-29T10:55:05Z</time></trkpt><trkpt lat="51.9665444735" lon="-2.0941185951"><ele>21.77</ele><time>2014-01-29T10:55:33Z</time></trkpt><trkpt lat="51.9665476587" lon="-2.0941110514"><ele>21.77</ele><time>2014-01-29T10:55:58Z</time></trkpt><trkpt lat="51.9665556215" lon="-2.0941191819"><ele>21.29</ele><time>2014-01-29T10:56:31Z</time></trkpt><trkpt lat="51.9665467367" lon="-2.0941163320"><ele>21.77</ele><time>2014-01-29T10:56:54Z</time></trkpt><trkpt lat="51.9665550347" lon="-2.0941209421"><ele>21.29</ele><time>2014-01-29T10:57:09Z</time></trkpt><trkpt lat="51.9665499218" lon="-2.0941118058"><ele>21.29</ele><time>2014-01-29T10:57:31Z</time></trkpt><trkpt lat="51.9665459823" lon="-2.0941140689"><ele>21.77</ele><time>2014-01-29T10:57:56Z</time></trkpt><trkpt lat="51.9665577170" lon="-2.0940999035"><ele>21.29</ele><time>2014-01-29T10:58:13Z</time></trkpt><trkpt lat="51.9665510114" lon="-2.0941199362"><ele>21.77</ele><time>2014-01-29T10:58:31Z</time></trkpt><trkpt lat="51.9665505085" lon="-2.0941140689"><ele>21.77</ele><time>2014-01-29T10:59:02Z</time></trkpt><trkpt lat="51.9665484969" lon="-2.0941100456"><ele>21.29</ele><time>2014-01-29T10:59:27Z</time></trkpt><trkpt lat="51.9665495865" lon="-2.0940995682"><ele>21.29</ele><time>2014-01-29T10:59:56Z</time></trkpt><trkpt lat="51.9665504247" lon="-2.0940984786"><ele>21.29</ele><time>2014-01-29T11:00:22Z</time></trkpt><trkpt lat="51.9665515982" lon="-2.0940988138"><ele>21.77</ele><time>2014-01-29T11:00:51Z</time></trkpt><trkpt lat="51.9665530231" lon="-2.0940989815"><ele>21.77</ele><time>2014-01-29T11:01:32Z</time></trkpt><trkpt lat="51.9665504247" lon="-2.0940965507"><ele>21.77</ele><time>2014-01-29T11:02:02Z</time></trkpt><trkpt lat="51.9665464852" lon="-2.0940905157"><ele>21.29</ele><time>2014-01-29T11:02:34Z</time></trkpt><trkpt lat="51.9665445574" lon="-2.0940900967"><ele>21.29</ele><time>2014-01-29T11:03:05Z</time></trkpt><trkpt lat="51.9665427972" lon="-2.0940863248"><ele>21.77</ele><time>2014-01-29T11:03:33Z</time></trkpt><trkpt lat="51.9665580522" lon="-2.0940812957"><ele>21.77</ele><time>2014-01-29T11:03:53Z</time></trkpt><trkpt lat="51.9665624108" lon="-2.0940797031"><ele>21.29</ele><time>2014-01-29T11:04:10Z</time></trkpt><trkpt lat="51.9665454794" lon="-2.0941123925"><ele>21.29</ele><time>2014-01-29T11:04:25Z</time></trkpt><trkpt lat="51.9665502571" lon="-2.0941306651"><ele>21.77</ele><time>2014-01-29T11:04:50Z</time></trkpt><trkpt lat="51.9665428810" lon="-2.0941600017"><ele>21.77</ele><time>2014-01-29T11:05:13Z</time></trkpt><trkpt lat="51.9665308110" lon="-2.0941304136"><ele>21.77</ele><time>2014-01-29T11:05:26Z</time></trkpt><trkpt lat="51.9665189087" lon="-2.0941106323"><ele>21.77</ele><time>2014-01-29T11:05:44Z</time></trkpt><trkpt lat="51.9665138796" lon="-2.0941073634"><ele>20.81</ele><time>2014-01-29T11:06:12Z</time></trkpt><trkpt lat="51.9665143825" lon="-2.0941139851"><ele>21.29</ele><time>2014-01-29T11:06:37Z</time></trkpt><trkpt lat="51.9665114488" lon="-2.0941180084"><ele>21.29</ele><time>2014-01-29T11:07:06Z</time></trkpt><trkpt lat="51.9665096048" lon="-2.0941216126"><ele>21.29</ele><time>2014-01-29T11:07:37Z</time></trkpt><trkpt lat="51.9664992113" lon="-2.0941118058"><ele>20.81</ele><time>2014-01-29T11:08:01Z</time></trkpt><trkpt lat="51.9663513545" lon="-2.0939182676"><ele>21.29</ele><time>2014-01-29T11:08:16Z</time></trkpt><trkpt lat="51.9662114605" lon="-2.0937309321"><ele>21.29</ele><time>2014-01-29T11:08:32Z</time></trkpt><trkpt lat="51.9660443254" lon="-2.0935250726"><ele>21.29</ele><time>2014-01-29T11:08:50Z</time></trkpt><trkpt lat="51.9659040123" lon="-2.0933868550"><ele>22.25</ele><time>2014-01-29T11:09:08Z</time></trkpt><trkpt lat="51.9658253901" lon="-2.0932808239"><ele>22.25</ele><time>2014-01-29T11:09:19Z</time></trkpt><trkpt lat="51.9656879269" lon="-2.0931208134"><ele>23.21</ele><time>2014-01-29T11:09:35Z</time></trkpt><trkpt lat="51.9656693190" lon="-2.0931118447"><ele>22.25</ele><time>2014-01-29T11:09:37Z</time></trkpt><trkpt lat="51.9655216299" lon="-2.0929272752"><ele>22.25</ele><time>2014-01-29T11:09:53Z</time></trkpt><trkpt lat="51.9654021040" lon="-2.0927789155"><ele>23.21</ele><time>2014-01-29T11:10:08Z</time></trkpt><trkpt lat="51.9653804787" lon="-2.0927431248"><ele>22.73</ele><time>2014-01-29T11:10:24Z</time></trkpt><trkpt lat="51.9653817359" lon="-2.0927431248"><ele>23.21</ele><time>2014-01-29T11:10:50Z</time></trkpt><trkpt lat="51.9653807301" lon="-2.0927410293"><ele>23.69</ele><time>2014-01-29T11:11:20Z</time></trkpt><trkpt lat="51.9652480446" lon="-2.0926248562"><ele>23.21</ele><time>2014-01-29T11:11:35Z</time></trkpt><trkpt lat="51.9650866091" lon="-2.0924322400"><ele>24.17</ele><time>2014-01-29T11:11:53Z</time></trkpt><trkpt lat="51.9649132714" lon="-2.0922310743"><ele>24.17</ele><time>2014-01-29T11:12:11Z</time></trkpt><trkpt lat="51.9647417776" lon="-2.0920171682"><ele>25.61</ele><time>2014-01-29T11:12:29Z</time></trkpt><trkpt lat="51.9645974413" lon="-2.0918216184"><ele>26.57</ele><time>2014-01-29T11:12:44Z</time></trkpt><trkpt lat="51.9644526858" lon="-2.0916431677"><ele>27.05</ele><time>2014-01-29T11:12:59Z</time></trkpt><trkpt lat="51.9644055795" lon="-2.0916020125"><ele>28.02</ele><time>2014-01-29T11:13:11Z</time></trkpt><trkpt lat="51.9643748179" lon="-2.0915556606"><ele>27.53</ele><time>2014-01-29T11:13:20Z</time></trkpt><trkpt lat="51.9643155579" lon="-2.0912574325"><ele>28.50</ele><time>2014-01-29T11:13:37Z</time></trkpt><trkpt lat="51.9643400330" lon="-2.0909882057"><ele>28.02</ele><time>2014-01-29T11:13:51Z</time></trkpt><trkpt lat="51.9643507618" lon="-2.0908981841"><ele>28.98</ele><time>2014-01-29T11:13:56Z</time></trkpt><trkpt lat="51.9643880613" lon="-2.0905713737"><ele>29.94</ele><time>2014-01-29T11:14:12Z</time></trkpt><trkpt lat="51.9644125365" lon="-2.0903069247"><ele>30.90</ele><time>2014-01-29T11:14:26Z</time></trkpt><trkpt lat="51.9644427951" lon="-2.0899886638"><ele>31.38</ele><time>2014-01-29T11:14:43Z</time></trkpt><trkpt lat="51.9644896500" lon="-2.0896370430"><ele>31.86</ele><time>2014-01-29T11:15:01Z</time></trkpt><trkpt lat="51.9644961040" lon="-2.0894823130"><ele>33.30</ele><time>2014-01-29T11:15:11Z</time></trkpt><trkpt lat="51.9645051565" lon="-2.0892885234"><ele>32.82</ele><time>2014-01-29T11:15:21Z</time></trkpt><trkpt lat="51.9644800946" lon="-2.0890163630"><ele>33.78</ele><time>2014-01-29T11:15:38Z</time></trkpt><trkpt lat="51.9644582178" lon="-2.0886546839"><ele>33.78</ele><time>2014-01-29T11:15:54Z</time></trkpt><trkpt lat="51.9644505065" lon="-2.0886200666"><ele>34.26</ele><time>2014-01-29T11:16:16Z</time></trkpt><trkpt lat="51.9644133747" lon="-2.0886381716"><ele>34.26</ele><time>2014-01-29T11:16:28Z</time></trkpt><trkpt lat="51.9643752370" lon="-2.0885926578"><ele>34.74</ele><time>2014-01-29T11:16:41Z</time></trkpt><trkpt lat="51.9643760752" lon="-2.0885962620"><ele>33.78</ele><time>2014-01-29T11:17:08Z</time></trkpt><trkpt lat="51.9643365126" lon="-2.0885916520"><ele>34.26</ele><time>2014-01-29T11:17:24Z</time></trkpt><trkpt lat="51.9642921723" lon="-2.0885923225"><ele>34.74</ele><time>2014-01-29T11:17:29Z</time></trkpt><trkpt lat="51.9641784299" lon="-2.0886398479"><ele>34.26</ele><time>2014-01-29T11:17:42Z</time></trkpt><trkpt lat="51.9640098698" lon="-2.0886535104"><ele>33.78</ele><time>2014-01-29T11:17:57Z</time></trkpt><trkpt lat="51.9638418127" lon="-2.0885967650"><ele>35.23</ele><time>2014-01-29T11:18:14Z</time></trkpt><trkpt lat="51.9636906870" lon="-2.0885792468"><ele>34.74</ele><time>2014-01-29T11:18:30Z</time></trkpt><trkpt lat="51.9635457639" lon="-2.0885572862"><ele>34.26</ele><time>2014-01-29T11:18:45Z</time></trkpt><trkpt lat="51.9633799698" lon="-2.0885374211"><ele>34.74</ele><time>2014-01-29T11:19:01Z</time></trkpt><trkpt lat="51.9632523134" lon="-2.0885366667"><ele>34.74</ele><time>2014-01-29T11:19:17Z</time></trkpt><trkpt lat="51.9632086437" lon="-2.0885212440"><ele>35.23</ele><time>2014-01-29T11:19:22Z</time></trkpt><trkpt lat="51.9630465377" lon="-2.0884843636"><ele>35.23</ele><time>2014-01-29T11:19:39Z</time></trkpt><trkpt lat="51.9628866948" lon="-2.0884562843"><ele>35.23</ele><time>2014-01-29T11:19:55Z</time></trkpt><trkpt lat="51.9627358206" lon="-2.0884540211"><ele>34.26</ele><time>2014-01-29T11:20:11Z</time></trkpt><trkpt lat="51.9625739660" lon="-2.0884495787"><ele>35.23</ele><time>2014-01-29T11:20:28Z</time></trkpt><trkpt lat="51.9624114409" lon="-2.0884292107"><ele>35.71</ele><time>2014-01-29T11:20:43Z</time></trkpt><trkpt lat="51.9622511789" lon="-2.0884364191"><ele>35.23</ele><time>2014-01-29T11:21:00Z</time></trkpt><trkpt lat="51.9621634204" lon="-2.0884350780"><ele>34.74</ele><time>2014-01-29T11:21:14Z</time></trkpt><trkpt lat="51.9620185811" lon="-2.0884427056"><ele>34.74</ele><time>2014-01-29T11:21:29Z</time></trkpt><trkpt lat="51.9618476741" lon="-2.0884360839"><ele>34.26</ele><time>2014-01-29T11:21:45Z</time></trkpt><trkpt lat="51.9616761804" lon="-2.0884348266"><ele>35.23</ele><time>2014-01-29T11:22:01Z</time></trkpt><trkpt lat="51.9615072850" lon="-2.0884390175"><ele>33.78</ele><time>2014-01-29T11:22:18Z</time></trkpt><trkpt lat="51.9613344502" lon="-2.0884495787"><ele>33.30</ele><time>2014-01-29T11:22:35Z</time></trkpt><trkpt lat="51.9611855876" lon="-2.0884433761"><ele>33.30</ele><time>2014-01-29T11:22:50Z</time></trkpt><trkpt lat="51.9610433467" lon="-2.0884595532"><ele>32.82</ele><time>2014-01-29T11:23:05Z</time></trkpt><trkpt lat="51.9609923847" lon="-2.0884357486"><ele>32.82</ele><time>2014-01-29T11:23:11Z</time></trkpt><trkpt lat="51.9609096553" lon="-2.0884153806"><ele>32.82</ele><time>2014-01-29T11:23:26Z</time></trkpt><trkpt lat="51.9608896226" lon="-2.0884152967"><ele>32.82</ele><time>2014-01-29T11:23:39Z</time></trkpt><trkpt lat="51.9608402532" lon="-2.0884171408"><ele>32.82</ele><time>2014-01-29T11:23:53Z</time></trkpt><trkpt lat="51.9608327094" lon="-2.0884142071"><ele>32.82</ele><time>2014-01-29T11:24:11Z</time></trkpt><trkpt lat="51.9608382415" lon="-2.0884120278"><ele>33.30</ele><time>2014-01-29T11:24:27Z</time></trkpt><trkpt lat="51.9608458690" lon="-2.0883572102"><ele>32.82</ele><time>2014-01-29T11:24:40Z</time></trkpt><trkpt lat="51.9608260039" lon="-2.0883079246"><ele>32.82</ele><time>2014-01-29T11:24:57Z</time></trkpt><trkpt lat="51.9608462043" lon="-2.0882341638"><ele>32.82</ele><time>2014-01-29T11:25:04Z</time></trkpt><trkpt lat="51.9608648121" lon="-2.0880128816"><ele>32.34</ele><time>2014-01-29T11:25:19Z</time></trkpt><trkpt lat="51.9609230664" lon="-2.0877329260"><ele>32.34</ele><time>2014-01-29T11:25:36Z</time></trkpt><trkpt lat="51.9609250780" lon="-2.0877185091"><ele>32.82</ele><time>2014-01-29T11:25:37Z</time></trkpt><trkpt lat="51.9609577674" lon="-2.0876058564"><ele>32.34</ele><time>2014-01-29T11:25:44Z</time></trkpt><trkpt lat="51.9609905407" lon="-2.0875183493"><ele>32.34</ele><time>2014-01-29T11:25:50Z</time></trkpt><trkpt lat="51.9610959012" lon="-2.0873108972"><ele>33.30</ele><time>2014-01-29T11:26:07Z</time></trkpt><trkpt lat="51.9611075521" lon="-2.0872829854"><ele>32.34</ele><time>2014-01-29T11:26:09Z</time></trkpt><trkpt lat="51.9612262398" lon="-2.0870798919"><ele>32.82</ele><time>2014-01-29T11:26:26Z</time></trkpt><trkpt lat="51.9613295048" lon="-2.0868560113"><ele>33.78</ele><time>2014-01-29T11:26:43Z</time></trkpt><trkpt lat="51.9613556564" lon="-2.0868108328"><ele>33.78</ele><time>2014-01-29T11:26:47Z</time></trkpt><trkpt lat="51.9613844063" lon="-2.0867390838"><ele>33.78</ele><time>2014-01-29T11:26:53Z</time></trkpt><trkpt lat="51.9613899384" lon="-2.0866887085"><ele>33.30</ele><time>2014-01-29T11:26:56Z</time></trkpt><trkpt lat="51.9614037685" lon="-2.0866431948"><ele>34.26</ele><time>2014-01-29T11:26:59Z</time></trkpt><trkpt lat="51.9614253938" lon="-2.0866121817"><ele>33.78</ele><time>2014-01-29T11:27:02Z</time></trkpt><trkpt lat="51.9614558201" lon="-2.0865344815"><ele>33.78</ele><time>2014-01-29T11:27:08Z</time></trkpt><trkpt lat="51.9614712428" lon="-2.0864506625"><ele>34.26</ele><time>2014-01-29T11:27:14Z</time></trkpt><trkpt lat="51.9614910241" lon="-2.0864083339"><ele>34.26</ele><time>2014-01-29T11:27:17Z</time></trkpt><trkpt lat="51.9615652878" lon="-2.0862181485"><ele>35.71</ele><time>2014-01-29T11:27:32Z</time></trkpt><trkpt lat="51.9616014138" lon="-2.0860903244"><ele>35.23</ele><time>2014-01-29T11:27:43Z</time></trkpt><trkpt lat="51.9616838079" lon="-2.0859633386"><ele>34.74</ele><time>2014-01-29T11:27:58Z</time></trkpt><trkpt lat="51.9617034215" lon="-2.0859196689"><ele>37.15</ele><time>2014-01-29T11:28:13Z</time></trkpt><trkpt lat="51.9618273061" lon="-2.0859409589"><ele>36.67</ele><time>2014-01-29T11:28:27Z</time></trkpt><trkpt lat="51.9619879033" lon="-2.0859396178"><ele>37.15</ele><time>2014-01-29T11:28:44Z</time></trkpt><trkpt lat="51.9619965367" lon="-2.0859354269"><ele>36.67</ele><time>2014-01-29T11:28:45Z</time></trkpt><trkpt lat="51.9620794337" lon="-2.0859026536"><ele>36.19</ele><time>2014-01-29T11:29:03Z</time></trkpt><trkpt lat="51.9620739855" lon="-2.0858683717"><ele>37.15</ele><time>2014-01-29T11:29:33Z</time></trkpt><trkpt lat="51.9620604906" lon="-2.0858317427"><ele>35.71</ele><time>2014-01-29T11:29:36Z</time></trkpt><trkpt lat="51.9620607421" lon="-2.0857715607"><ele>36.67</ele><time>2014-01-29T11:29:40Z</time></trkpt><trkpt lat="51.9620811101" lon="-2.0854294114"><ele>36.67</ele><time>2014-01-29T11:29:56Z</time></trkpt><trkpt lat="51.9620811101" lon="-2.0852444228"><ele>36.67</ele><time>2014-01-29T11:30:10Z</time></trkpt><trkpt lat="51.9620744884" lon="-2.0852543134"><ele>35.71</ele><time>2014-01-29T11:30:27Z</time></trkpt><trkpt lat="51.9620741531" lon="-2.0852528885"><ele>38.11</ele><time>2014-01-29T11:30:32Z</time></trkpt><trkpt lat="51.9620733149" lon="-2.0852409024"><ele>36.67</ele><time>2014-01-29T11:30:34Z</time></trkpt><trkpt lat="51.9620695431" lon="-2.0852115657"><ele>36.19</ele><time>2014-01-29T11:30:47Z</time></trkpt><trkpt lat="51.9620626699" lon="-2.0851953886"><ele>39.55</ele><time>2014-01-29T11:31:00Z</time></trkpt><trkpt lat="51.9620653521" lon="-2.0852029324"><ele>37.15</ele><time>2014-01-29T11:31:01Z</time></trkpt><trkpt lat="51.9620754104" lon="-2.0849710889"><ele>36.19</ele><time>2014-01-29T11:31:17Z</time></trkpt><trkpt lat="51.9620940182" lon="-2.0846099127"><ele>37.15</ele><time>2014-01-29T11:31:36Z</time></trkpt><trkpt lat="51.9620916713" lon="-2.0843530912"><ele>36.67</ele><time>2014-01-29T11:31:49Z</time></trkpt><trkpt lat="51.9621012267" lon="-2.0841355808"><ele>37.15</ele><time>2014-01-29T11:32:03Z</time></trkpt><trkpt lat="51.9621064235" lon="-2.0840792544"><ele>36.67</ele><time>2014-01-29T11:32:08Z</time></trkpt><trkpt lat="51.9621080160" lon="-2.0837617479"><ele>37.63</ele><time>2014-01-29T11:32:25Z</time></trkpt><trkpt lat="51.9621323235" lon="-2.0834932756"><ele>37.15</ele><time>2014-01-29T11:32:42Z</time></trkpt><trkpt lat="51.9621417951" lon="-2.0834156591"><ele>37.63</ele><time>2014-01-29T11:32:47Z</time></trkpt><trkpt lat="51.9621469919" lon="-2.0833460893"><ele>37.63</ele><time>2014-01-29T11:32:51Z</time></trkpt><trkpt lat="51.9621609896" lon="-2.0832756814"><ele>38.11</ele><time>2014-01-29T11:32:55Z</time></trkpt><trkpt lat="51.9621588942" lon="-2.0831812173"><ele>37.63</ele><time>2014-01-29T11:33:00Z</time></trkpt><trkpt lat="51.9622021448" lon="-2.0828633755"><ele>38.59</ele><time>2014-01-29T11:33:16Z</time></trkpt><trkpt lat="51.9622173160" lon="-2.0826802310"><ele>38.11</ele><time>2014-01-29T11:33:26Z</time></trkpt><trkpt lat="51.9622451439" lon="-2.0824215654"><ele>37.63</ele><time>2014-01-29T11:33:40Z</time></trkpt><trkpt lat="51.9622757379" lon="-2.0820878819"><ele>39.07</ele><time>2014-01-29T11:33:57Z</time></trkpt><trkpt lat="51.9622955192" lon="-2.0819328167"><ele>40.03</ele><time>2014-01-29T11:34:05Z</time></trkpt><trkpt lat="51.9623199105" lon="-2.0818286296"><ele>39.07</ele><time>2014-01-29T11:34:10Z</time></trkpt><trkpt lat="51.9623507559" lon="-2.0816657692"><ele>39.07</ele><time>2014-01-29T11:34:19Z</time></trkpt><trkpt lat="51.9623529352" lon="-2.0816275477"><ele>39.07</ele><time>2014-01-29T11:34:21Z</time></trkpt><trkpt lat="51.9623878039" lon="-2.0813138131"><ele>40.51</ele><time>2014-01-29T11:34:38Z</time></trkpt><trkpt lat="51.9624531828" lon="-2.0810361207"><ele>40.99</ele><time>2014-01-29T11:34:55Z</time></trkpt><trkpt lat="51.9624406099" lon="-2.0807713363"><ele>39.55</ele><time>2014-01-29T11:35:09Z</time></trkpt><trkpt lat="51.9624485727" lon="-2.0806104038"><ele>40.99</ele><time>2014-01-29T11:35:23Z</time></trkpt><trkpt lat="51.9624463096" lon="-2.0804075617"><ele>40.51</ele><time>2014-01-29T11:35:37Z</time></trkpt><trkpt lat="51.9624800887" lon="-2.0801026281"><ele>40.99</ele><time>2014-01-29T11:35:54Z</time></trkpt><trkpt lat="51.9624810107" lon="-2.0800698549"><ele>40.51</ele><time>2014-01-29T11:36:17Z</time></trkpt><trkpt lat="51.9624820165" lon="-2.0800644066"><ele>40.51</ele><time>2014-01-29T11:36:30Z</time></trkpt><trkpt lat="51.9624767359" lon="-2.0800343156"><ele>40.99</ele><time>2014-01-29T11:36:32Z</time></trkpt><trkpt lat="51.9624798372" lon="-2.0796805993"><ele>41.47</ele><time>2014-01-29T11:36:51Z</time></trkpt><trkpt lat="51.9624913204" lon="-2.0794586465"><ele>41.95</ele><time>2014-01-29T11:37:08Z</time></trkpt><trkpt lat="51.9624835253" lon="-2.0793269668"><ele>40.99</ele><time>2014-01-29T11:37:23Z</time></trkpt><trkpt lat="51.9624562003" lon="-2.0790188480"><ele>41.95</ele><time>2014-01-29T11:37:42Z</time></trkpt><trkpt lat="51.9624471478" lon="-2.0788487792"><ele>40.99</ele><time>2014-01-29T11:37:53Z</time></trkpt><trkpt lat="51.9624263607" lon="-2.0785206277"><ele>40.99</ele><time>2014-01-29T11:38:12Z</time></trkpt><trkpt lat="51.9624336530" lon="-2.0782814920"><ele>42.44</ele><time>2014-01-29T11:38:28Z</time></trkpt><trkpt lat="51.9624332339" lon="-2.0782675780"><ele>42.44</ele><time>2014-01-29T11:38:29Z</time></trkpt><trkpt lat="51.9624245167" lon="-2.0781490579"><ele>42.44</ele><time>2014-01-29T11:38:36Z</time></trkpt><trkpt lat="51.9624125306" lon="-2.0778540988"><ele>42.92</ele><time>2014-01-29T11:38:54Z</time></trkpt><trkpt lat="51.9624232594" lon="-2.0777701959"><ele>42.44</ele><time>2014-01-29T11:39:13Z</time></trkpt><trkpt lat="51.9624362513" lon="-2.0777597185"><ele>42.92</ele><time>2014-01-29T11:39:24Z</time></trkpt><trkpt lat="51.9624536857" lon="-2.0776305534"><ele>42.92</ele><time>2014-01-29T11:39:38Z</time></trkpt><trkpt lat="51.9624542724" lon="-2.0775300544"><ele>42.44</ele><time>2014-01-29T11:39:44Z</time></trkpt><trkpt lat="51.9624476507" lon="-2.0774244424"><ele>42.92</ele><time>2014-01-29T11:40:02Z</time></trkpt><trkpt lat="51.9624448847" lon="-2.0774218440"><ele>42.92</ele><time>2014-01-29T11:40:31Z</time></trkpt><trkpt lat="51.9624441303" lon="-2.0774107799"><ele>42.44</ele><time>2014-01-29T11:41:03Z</time></trkpt><trkpt lat="51.9624289591" lon="-2.0773121249"><ele>41.47</ele><time>2014-01-29T11:41:17Z</time></trkpt><trkpt lat="51.9624351617" lon="-2.0772261266"><ele>40.99</ele><time>2014-01-29T11:41:22Z</time></trkpt><trkpt lat="51.9624285400" lon="-2.0770630985"><ele>42.92</ele><time>2014-01-29T11:41:34Z</time></trkpt><trkpt lat="51.9624251034" lon="-2.0768091269"><ele>42.44</ele><time>2014-01-29T11:41:50Z</time></trkpt><trkpt lat="51.9624475669" lon="-2.0764886867"><ele>41.95</ele><time>2014-01-29T11:42:07Z</time></trkpt><trkpt lat="51.9624673482" lon="-2.0762339607"><ele>42.44</ele><time>2014-01-29T11:42:22Z</time></trkpt><trkpt lat="51.9624910690" lon="-2.0759513229"><ele>42.44</ele><time>2014-01-29T11:42:39Z</time></trkpt><trkpt lat="51.9625137839" lon="-2.0756816771"><ele>42.92</ele><time>2014-01-29T11:42:55Z</time></trkpt><trkpt lat="51.9625370018" lon="-2.0753534418"><ele>42.44</ele><time>2014-01-29T11:43:14Z</time></trkpt><trkpt lat="51.9625570346" lon="-2.0750653557"><ele>42.44</ele><time>2014-01-29T11:43:31Z</time></trkpt><trkpt lat="51.9625755586" lon="-2.0748011582"><ele>42.92</ele><time>2014-01-29T11:43:48Z</time></trkpt><trkpt lat="51.9625901431" lon="-2.0745377149"><ele>43.40</ele><time>2014-01-29T11:44:04Z</time></trkpt><trkpt lat="51.9625893887" lon="-2.0745107252"><ele>44.84</ele><time>2014-01-29T11:44:06Z</time></trkpt><trkpt lat="51.9625996985" lon="-2.0744225476"><ele>43.40</ele><time>2014-01-29T11:44:11Z</time></trkpt><trkpt lat="51.9626236707" lon="-2.0741187036"><ele>43.40</ele><time>2014-01-29T11:44:29Z</time></trkpt><trkpt lat="51.9626390096" lon="-2.0738514885"><ele>43.40</ele><time>2014-01-29T11:44:45Z</time></trkpt><trkpt lat="51.9626607187" lon="-2.0735584572"><ele>43.88</ele><time>2014-01-29T11:45:04Z</time></trkpt><trkpt lat="51.9626836851" lon="-2.0733447187"><ele>44.84</ele><time>2014-01-29T11:45:18Z</time></trkpt><trkpt lat="51.9626999460" lon="-2.0731101930"><ele>44.84</ele><time>2014-01-29T11:45:33Z</time></trkpt><trkpt lat="51.9627089147" lon="-2.0728668664"><ele>44.36</ele><time>2014-01-29T11:45:49Z</time></trkpt><trkpt lat="51.9627405144" lon="-2.0725890063"><ele>43.88</ele><time>2014-01-29T11:46:05Z</time></trkpt><trkpt lat="51.9627695158" lon="-2.0723324362"><ele>45.32</ele><time>2014-01-29T11:46:22Z</time></trkpt><trkpt lat="51.9628470484" lon="-2.0720902830"><ele>45.32</ele><time>2014-01-29T11:46:39Z</time></trkpt><trkpt lat="51.9628990162" lon="-2.0719727688"><ele>46.28</ele><time>2014-01-29T11:46:53Z</time></trkpt><trkpt lat="51.9629672449" lon="-2.0718301088"><ele>45.80</ele><time>2014-01-29T11:47:08Z</time></trkpt><trkpt lat="51.9630548358" lon="-2.0716465451"><ele>46.28</ele><time>2014-01-29T11:47:26Z</time></trkpt><trkpt lat="51.9630708452" lon="-2.0716062281"><ele>45.80</ele><time>2014-01-29T11:47:40Z</time></trkpt><trkpt lat="51.9631166104" lon="-2.0714174677"><ele>46.28</ele><time>2014-01-29T11:47:57Z</time></trkpt><trkpt lat="51.9631643873" lon="-2.0712602232"><ele>46.76</ele><time>2014-01-29T11:48:11Z</time></trkpt><trkpt lat="51.9632168580" lon="-2.0711791702"><ele>46.76</ele><time>2014-01-29T11:48:23Z</time></trkpt><trkpt lat="51.9632860925" lon="-2.0709435549"><ele>47.24</ele><time>2014-01-29T11:48:39Z</time></trkpt><trkpt lat="51.9633185305" lon="-2.0707975421"><ele>47.24</ele><time>2014-01-29T11:48:55Z</time></trkpt><trkpt lat="51.9633596018" lon="-2.0706892479"><ele>47.24</ele><time>2014-01-29T11:49:10Z</time></trkpt><trkpt lat="51.9634186104" lon="-2.0704172552"><ele>47.72</ele><time>2014-01-29T11:49:27Z</time></trkpt><trkpt lat="51.9634757750" lon="-2.0702522155"><ele>47.24</ele><time>2014-01-29T11:49:40Z</time></trkpt><trkpt lat="51.9635496195" lon="-2.0699166879"><ele>47.24</ele><time>2014-01-29T11:49:57Z</time></trkpt><trkpt lat="51.9636003301" lon="-2.0695990976"><ele>47.72</ele><time>2014-01-29T11:50:15Z</time></trkpt><trkpt lat="51.9636227936" lon="-2.0694922283"><ele>46.76</ele><time>2014-01-29T11:50:30Z</time></trkpt><trkpt lat="51.9636229612" lon="-2.0694723632"><ele>47.72</ele><time>2014-01-29T11:50:37Z</time></trkpt><trkpt lat="51.9636221230" lon="-2.0693881251"><ele>47.72</ele><time>2014-01-29T11:50:41Z</time></trkpt><trkpt lat="51.9636030123" lon="-2.0692113508"><ele>46.76</ele><time>2014-01-29T11:50:58Z</time></trkpt><trkpt lat="51.9636248890" lon="-2.0689634979"><ele>47.24</ele><time>2014-01-29T11:51:15Z</time></trkpt><trkpt lat="51.9636620209" lon="-2.0686978754"><ele>47.72</ele><time>2014-01-29T11:51:31Z</time></trkpt><trkpt lat="51.9636953808" lon="-2.0683867391"><ele>47.24</ele><time>2014-01-29T11:51:50Z</time></trkpt><trkpt lat="51.9637295790" lon="-2.0681550633"><ele>48.20</ele><time>2014-01-29T11:52:06Z</time></trkpt><trkpt lat="51.9637502823" lon="-2.0679461025"><ele>50.13</ele><time>2014-01-29T11:52:20Z</time></trkpt><trkpt lat="51.9637697283" lon="-2.0677567553"><ele>48.20</ele><time>2014-01-29T11:52:32Z</time></trkpt><trkpt lat="51.9637869112" lon="-2.0675355569"><ele>48.20</ele><time>2014-01-29T11:52:48Z</time></trkpt><trkpt lat="51.9638197683" lon="-2.0672597922"><ele>49.16</ele><time>2014-01-29T11:53:06Z</time></trkpt><trkpt lat="51.9638517033" lon="-2.0671034697"><ele>48.68</ele><time>2014-01-29T11:53:17Z</time></trkpt><trkpt lat="51.9638558943" lon="-2.0670539327"><ele>48.20</ele><time>2014-01-29T11:53:20Z</time></trkpt><trkpt lat="51.9638852309" lon="-2.0667624101"><ele>49.16</ele><time>2014-01-29T11:53:37Z</time></trkpt><trkpt lat="51.9638908468" lon="-2.0666282997"><ele>48.68</ele><time>2014-01-29T11:53:51Z</time></trkpt><trkpt lat="51.9638902601" lon="-2.0665998850"><ele>48.68</ele><time>2014-01-29T11:53:58Z</time></trkpt><trkpt lat="51.9639059342" lon="-2.0664552134"><ele>48.20</ele><time>2014-01-29T11:54:07Z</time></trkpt><trkpt lat="51.9639058504" lon="-2.0663656108"><ele>47.72</ele><time>2014-01-29T11:54:12Z</time></trkpt><trkpt lat="51.9639259670" lon="-2.0662159100"><ele>48.68</ele><time>2014-01-29T11:54:21Z</time></trkpt><trkpt lat="51.9639442395" lon="-2.0659978129"><ele>51.09</ele><time>2014-01-29T11:54:36Z</time></trkpt><trkpt lat="51.9639723189" lon="-2.0657483675"><ele>49.65</ele><time>2014-01-29T11:54:52Z</time></trkpt><trkpt lat="51.9639899209" lon="-2.0654555038"><ele>49.65</ele><time>2014-01-29T11:55:09Z</time></trkpt><trkpt lat="51.9640469179" lon="-2.0652594510"><ele>48.20</ele><time>2014-01-29T11:55:23Z</time></trkpt><trkpt lat="51.9640553836" lon="-2.0652524102"><ele>50.13</ele><time>2014-01-29T11:55:28Z</time></trkpt><trkpt lat="51.9640537910" lon="-2.0652711857"><ele>49.65</ele><time>2014-01-29T11:55:42Z</time></trkpt><trkpt lat="51.9640912581" lon="-2.0653367322"><ele>49.16</ele><time>2014-01-29T11:55:52Z</time></trkpt><trkpt lat="51.9641253725" lon="-2.0652468782"><ele>48.68</ele><time>2014-01-29T11:55:59Z</time></trkpt><trkpt lat="51.9641671143" lon="-2.0649697725"><ele>49.65</ele><time>2014-01-29T11:56:17Z</time></trkpt><trkpt lat="51.9641591515" lon="-2.0648439601"><ele>49.65</ele><time>2014-01-29T11:56:28Z</time></trkpt><trkpt lat="51.9641454890" lon="-2.0647509210"><ele>49.16</ele><time>2014-01-29T11:56:40Z</time></trkpt><trkpt lat="51.9641368557" lon="-2.0647370908"><ele>49.16</ele><time>2014-01-29T11:56:55Z</time></trkpt><trkpt lat="51.9641439803" lon="-2.0647126995"><ele>49.16</ele><time>2014-01-29T11:57:03Z</time></trkpt><trkpt lat="51.9641480874" lon="-2.0646806806"><ele>49.65</ele><time>2014-01-29T11:57:05Z</time></trkpt><trkpt lat="51.9641500153" lon="-2.0644158963"><ele>49.65</ele><time>2014-01-29T11:57:23Z</time></trkpt><trkpt lat="51.9641770050" lon="-2.0641231164"><ele>51.09</ele><time>2014-01-29T11:57:44Z</time></trkpt><trkpt lat="51.9641857222" lon="-2.0639432408"><ele>50.13</ele><time>2014-01-29T11:57:58Z</time></trkpt><trkpt lat="51.9641853031" lon="-2.0637029316"><ele>50.61</ele><time>2014-01-29T11:58:15Z</time></trkpt><trkpt lat="51.9642113708" lon="-2.0635227207"><ele>51.09</ele><time>2014-01-29T11:58:29Z</time></trkpt><trkpt lat="51.9642246980" lon="-2.0633404981"><ele>51.09</ele><time>2014-01-29T11:58:42Z</time></trkpt><trkpt lat="51.9642337505" lon="-2.0631407574"><ele>50.61</ele><time>2014-01-29T11:58:55Z</time></trkpt><trkpt lat="51.9642806891" lon="-2.0628814213"><ele>50.61</ele><time>2014-01-29T11:59:12Z</time></trkpt><trkpt lat="51.9643227663" lon="-2.0627760608"><ele>51.09</ele><time>2014-01-29T11:59:23Z</time></trkpt><trkpt lat="51.9643350877" lon="-2.0627450477"><ele>51.09</ele><time>2014-01-29T11:59:31Z</time></trkpt><trkpt lat="51.9643725548" lon="-2.0625082590"><ele>50.61</ele><time>2014-01-29T11:59:47Z</time></trkpt><trkpt lat="51.9644090161" lon="-2.0622953586"><ele>51.09</ele><time>2014-01-29T12:00:02Z</time></trkpt><trkpt lat="51.9644435495" lon="-2.0620944444"><ele>50.13</ele><time>2014-01-29T12:00:18Z</time></trkpt><trkpt lat="51.9644606486" lon="-2.0619328413"><ele>51.09</ele><time>2014-01-29T12:00:32Z</time></trkpt><trkpt lat="51.9644847047" lon="-2.0616843179"><ele>50.61</ele><time>2014-01-29T12:00:50Z</time></trkpt><trkpt lat="51.9645369239" lon="-2.0614305977"><ele>51.09</ele><time>2014-01-29T12:01:07Z</time></trkpt><trkpt lat="51.9645609800" lon="-2.0612813160"><ele>51.09</ele><time>2014-01-29T12:01:25Z</time></trkpt><trkpt lat="51.9646002911" lon="-2.0611264184"><ele>50.61</ele><time>2014-01-29T12:01:43Z</time></trkpt><trkpt lat="51.9646159653" lon="-2.0608277712"><ele>50.13</ele><time>2014-01-29T12:01:59Z</time></trkpt><trkpt lat="51.9646675978" lon="-2.0607000310"><ele>50.61</ele><time>2014-01-29T12:02:09Z</time></trkpt><trkpt lat="51.9647798315" lon="-2.0604887232"><ele>50.61</ele><time>2014-01-29T12:02:28Z</time></trkpt><trkpt lat="51.9648431987" lon="-2.0604222547"><ele>51.09</ele><time>2014-01-29T12:02:42Z</time></trkpt><trkpt lat="51.9648543466" lon="-2.0603975281"><ele>50.61</ele><time>2014-01-29T12:02:58Z</time></trkpt><trkpt lat="51.9648924004" lon="-2.0603795908"><ele>50.61</ele><time>2014-01-29T12:03:15Z</time></trkpt><trkpt lat="51.9649505708" lon="-2.0604119450"><ele>50.13</ele><time>2014-01-29T12:03:27Z</time></trkpt><trkpt lat="51.9650701806" lon="-2.0604407787"><ele>50.13</ele><time>2014-01-29T12:03:38Z</time></trkpt><trkpt lat="51.9651360624" lon="-2.0604767371"><ele>50.61</ele><time>2014-01-29T12:03:45Z</time></trkpt><trkpt lat="51.9652152713" lon="-2.0604848675"><ele>50.13</ele><time>2014-01-29T12:03:52Z</time></trkpt><trkpt lat="51.9652544986" lon="-2.0604838617"><ele>50.61</ele><time>2014-01-29T12:03:55Z</time></trkpt><trkpt lat="51.9653955661" lon="-2.0605102647"><ele>50.61</ele><time>2014-01-29T12:04:11Z</time></trkpt><trkpt lat="51.9655227195" lon="-2.0605259389"><ele>50.61</ele><time>2014-01-29T12:04:24Z</time></trkpt><trkpt lat="51.9656543154" lon="-2.0605713688"><ele>48.68</ele><time>2014-01-29T12:04:37Z</time></trkpt><trkpt lat="51.9657046907" lon="-2.0606200676"><ele>49.16</ele><time>2014-01-29T12:04:44Z</time></trkpt><trkpt lat="51.9657158386" lon="-2.0606454648"><ele>50.13</ele><time>2014-01-29T12:04:46Z</time></trkpt><trkpt lat="51.9657331053" lon="-2.0607778151"><ele>50.61</ele><time>2014-01-29T12:04:57Z</time></trkpt><trkpt lat="51.9657341950" lon="-2.0608081575"><ele>49.65</ele><time>2014-01-29T12:04:59Z</time></trkpt><trkpt lat="51.9656672236" lon="-2.0609952416"><ele>50.13</ele><time>2014-01-29T12:05:14Z</time></trkpt><trkpt lat="51.9656160939" lon="-2.0611138456"><ele>50.13</ele><time>2014-01-29T12:05:28Z</time></trkpt><trkpt lat="51.9656128250" lon="-2.0611221436"><ele>50.13</ele><time>2014-01-29T12:05:45Z</time></trkpt><trkpt lat="51.9656108972" lon="-2.0611215569"><ele>50.61</ele><time>2014-01-29T12:05:47Z</time></trkpt></trkseg></trk></gpx>